Pioneer, Ohio
Current Conditions -  °F | °C
As of 4:14 PM on Sunday 23 Nov 2014 (Local Time) from KJYM Reporting Station
Moderate Rain Moderate Rain  
Wind Chill: 52°   Ceiling: 3000
Heat Index: 52°   Visibility: 3mi
Dew Point: 52°   Wind: 8mph
Humidity: 99%   Direction: 130°SE
Pressure: 29.63"   Gusts: NA
Location:  41.68°N, 84.55°W
Report Text: KJYM 232114Z AUTO 13007KT 3SM RA SCT020 OVC030 11/11 A2963 RMK AO2 T01130112
Loading
Personal Weather Stations






























Interactive Weather Map New forecast layout! Learn more

10-Day Weather Forecast

Advertisements
Track Severe Weather on mobile